Time;durP1;ratioP1;P1;durP2;ratioP2;P2;SDS_P1;SDS_P2;PMS_P1;PMS_P2;Temp;Humidity;BMP_temperature;BMP_pressure;BME280_temperature;BME280_humidity;BME280_pressure;Samples;Min_cycle;Max_cycle;Signal;HPM_P1;HPM_P2
2019/11/21 00:00:18;;;;;;;21;14.8;;;;;;;5.57;80.17871;931.4543;;;;
2019/11/21 00:02:52;;;;;;;20.6;15.3;;;;;;;5.69;80.01074;931.3983;;;;
2019/11/21 00:05:28;;;;;;;19.3;13.6;;;;;;;5.67;79.31641;931.4001;;;;
2019/11/21 00:07:52;;;;;;;18.5;13.5;;;;;;;5.73;79.97168;931.3934;;;;
2019/11/21 00:10:23;;;;;;;15;11.4;;;;;;;5.57;79.85156;931.3035;;;;
2019/11/21 00:12:52;;;;;;;15.3;11.9;;;;;;;5.59;79.8457;931.2977;;;;
2019/11/21 00:15:27;;;;;;;15.7;12.2;;;;;;;5.69;79.57031;931.3066;;;;
2019/11/21 00:18:00;;;;;;;16.8;12.3;;;;;;;5.71;78.99805;931.3022;;;;
2019/11/21 00:20:30;;;;;;;16.4;12.6;;;;;;;5.85;78.71777;931.2683;;;;
2019/11/21 00:22:57;;;;;;;16;12.6;;;;;;;5.94;78.11523;931.2258;;;;
2019/11/21 00:25:26;;;;;;;18.5;13.1;;;;;;;5.92;77.51172;931.2271;;;;
2019/11/21 00:27:54;;;;;;;16.8;12.8;;;;;;;5.97;78.43652;931.2594;;;;
2019/11/21 00:30:26;;;;;;;16.9;13.3;;;;;;;5.94;78.39551;931.2226;;;;
2019/11/21 00:32:54;;;;;;;15.7;12.5;;;;;;;5.7;78.31836;931.2617;;;;
2019/11/21 00:35:19;;;;;;;15.2;12;;;;;;;5.45;79.43457;931.2455;;;;
2019/11/21 00:37:59;;;;;;;16.6;13;;;;;;;5.22;80.82324;931.1741;;;;
2019/11/21 00:43:02;;;;;;;14.6;12.2;;;;;;;5.39;79.8291;931.1597;;;;
2019/11/21 00:45:27;;;;;;;15.9;12.3;;;;;;;5.61;79.44043;931.1884;;;;
2019/11/21 00:47:55;;;;;;;15.5;12.2;;;;;;;5.82;78.9502;931.0917;;;;
2019/11/21 00:50:31;;;;;;;13.7;11.4;;;;;;;5.98;77.86035;931.0675;;;;
2019/11/21 00:53:01;;;;;;;15.8;12.5;;;;;;;5.92;77.66895;931.0944;;;;
2019/11/21 00:55:32;;;;;;;17;12.7;;;;;;;5.87;77.91016;931.0585;;;;
2019/11/21 00:58:05;;;;;;;13.6;11.1;;;;;;;5.94;78.06836;931.0686;;;;
2019/11/21 01:00:31;;;;;;;12.8;10.8;;;;;;;5.98;76.92188;931.0573;;;;
2019/11/21 01:03:02;;;;;;;13.4;11.2;;;;;;;6.07;76.46582;931.0344;;;;
2019/11/21 01:05:40;;;;;;;14.3;11.2;;;;;;;5.97;76.91113;931.0105;;;;
2019/11/21 01:08:10;;;;;;;13.9;10.7;;;;;;;6.03;76.87598;930.9998;;;;
2019/11/21 01:10:39;;;;;;;15.4;11.8;;;;;;;5.95;77.40332;931.0016;;;;
2019/11/21 01:13:04;;;;;;;16.5;12.4;;;;;;;6.06;76.96094;930.9347;;;;
2019/11/21 01:15:37;;;;;;;14.2;11.6;;;;;;;5.76;78.33984;930.9799;;;;
2019/11/21 01:18:12;;;;;;;13.9;11.4;;;;;;;5.85;77.61133;930.9658;;;;
2019/11/21 01:20:36;;;;;;;13.8;11.4;;;;;;;5.89;77.60645;930.9402;;;;
2019/11/21 01:23:08;;;;;;;13.7;10.7;;;;;;;5.75;78.06934;930.9648;;;;
2019/11/21 01:28:17;;;;;;;11.7;9.9;;;;;;;5.57;78.66602;930.9119;;;;
2019/11/21 01:30:53;;;;;;;12.8;10.2;;;;;;;5.52;79.04199;930.9356;;;;
2019/11/21 01:33:22;;;;;;;13.3;10.4;;;;;;;5.54;78.97754;930.9658;;;;
2019/11/21 01:35:45;;;;;;;12.7;10.1;;;;;;;5.54;78.8418;930.8948;;;;
2019/11/21 01:38:17;;;;;;;11.6;9.9;;;;;;;5.56;78.77734;930.8967;;;;
2019/11/21 01:40:43;;;;;;;13.9;9.5;;;;;;;5.55;78.56152;930.8594;;;;
2019/11/21 01:43:10;;;;;;;10.9;9.4;;;;;;;5.59;78.73926;930.8183;;;;
2019/11/21 01:45:37;;;;;;;10.8;8.2;;;;;;;5.62;78.21387;930.6951;;;;
2019/11/21 01:48:09;;;;;;;9.5;8.5;;;;;;;5.59;78.28809;930.808;;;;
2019/11/21 01:50:35;;;;;;;9.6;8.3;;;;;;;5.56;77.75195;930.8194;;;;
2019/11/21 01:53:07;;;;;;;9.2;8.2;;;;;;;5.66;77.65527;930.7463;;;;
2019/11/21 01:55:31;;;;;;;9.2;8.2;;;;;;;5.59;77.41895;930.7622;;;;
2019/11/21 01:58:31;;;;;;;9.1;8.1;;;;;;;5.45;77.66504;930.794;;;;
2019/11/21 02:01:01;;;;;;;10.1;9;;;;;;;5.62;78.05566;930.7004;;;;
2019/11/21 02:03:34;;;;;;;11.4;9.5;;;;;;;5.71;78.00293;930.6127;;;;
2019/11/21 02:06:08;;;;;;;12.6;10.7;;;;;;;5.57;78.53125;930.6316;;;;
2019/11/21 02:08:40;;;;;;;11.7;9.6;;;;;;;5.49;78.30176;930.7449;;;;
2019/11/21 02:11:22;;;;;;;12.2;9.4;;;;;;;5.44;78.8125;930.6951;;;;
2019/11/21 02:13:56;;;;;;;11.6;9.8;;;;;;;5.43;78.44043;930.7115;;;;
2019/11/21 02:16:30;;;;;;;10.9;9.3;;;;;;;5.37;78.93457;930.6328;;;;
2019/11/21 02:19:04;;;;;;;11.5;8.8;;;;;;;5.2;80.12109;930.5887;;;;
2019/11/21 02:21:31;;;;;;;9.4;7.7;;;;;;;4.9;80.02148;930.6108;;;;
2019/11/21 02:24:04;;;;;;;9;7.8;;;;;;;4.83;80.54688;930.6142;;;;
2019/11/21 02:27:55;;;;;;;8.9;7.3;;;;;;;4.87;79.89063;930.5717;;;;
2019/11/21 02:29:05;;;;;;;8.3;7.2;;;;;;;4.74;80.83594;930.5967;;;;
2019/11/21 02:31:47;;;;;;;9.3;7.8;;;;;;;4.84;79.79395;930.6018;;;;
2019/11/21 02:34:14;;;;;;;10.9;8.8;;;;;;;4.97;79.79785;930.62;;;;
2019/11/21 02:36:47;;;;;;;10.9;8.6;;;;;;;4.93;79.65234;930.5821;;;;
2019/11/21 02:39:15;;;;;;;12.2;9.4;;;;;;;4.96;79.90625;930.5724;;;;
2019/11/21 02:41:43;;;;;;;11.1;9.1;;;;;;;5.14;79.60352;930.5506;;;;
2019/11/21 02:44:14;;;;;;;10.7;9.2;;;;;;;5.07;79.54492;930.5848;;;;
2019/11/21 02:46:40;;;;;;;12.1;9;;;;;;;5.2;79.18652;930.58;;;;
2019/11/21 02:49:18;;;;;;;10.1;8.3;;;;;;;5.15;78.37402;930.4639;;;;
2019/11/21 02:51:48;;;;;;;11;8.8;;;;;;;5.02;79.81641;930.5793;;;;
2019/11/21 02:54:15;;;;;;;10.4;8.7;;;;;;;5.02;79.44434;930.5004;;;;
2019/11/21 02:56:41;;;;;;;10.4;8.7;;;;;;;5.07;79.67773;930.532;;;;
2019/11/21 02:59:13;;;;;;;11.2;9.4;;;;;;;5.04;79.57129;930.4637;;;;
2019/11/21 03:01:59;;;;;;;11.4;9.4;;;;;;;4.88;81.09766;930.4487;;;;
2019/11/21 03:04:32;;;;;;;10.3;8.9;;;;;;;4.88;80.18555;930.4053;;;;
2019/11/21 03:07:48;;;;;;;10.6;8.8;;;;;;;4.63;81.33008;930.4012;;;;
2019/11/21 03:10:26;;;;;;;11.2;9.4;;;;;;;4.71;80.97559;930.406;;;;
2019/11/21 03:13:01;;;;;;;9.9;8.3;;;;;;;4.78;80.49316;930.3569;;;;
2019/11/21 03:16:45;;;;;;;11;8.3;;;;;;;4.94;80.5127;930.3276;;;;
2019/11/21 03:19:19;;;;;;;10.1;8.4;;;;;;;4.91;79.41309;930.3499;;;;
2019/11/21 03:21:52;;;;;;;10.1;8.5;;;;;;;4.94;80.09375;930.2203;;;;
2019/11/21 03:24:17;;;;;;;10.8;8.4;;;;;;;4.99;79.46191;930.3024;;;;
2019/11/21 03:26:48;;;;;;;9.6;8.2;;;;;;;4.94;79.05859;930.2779;;;;
2019/11/21 03:29:21;;;;;;;9.1;7.8;;;;;;;4.86;79.25586;930.2764;;;;
2019/11/21 03:31:55;;;;;;;8.6;7.7;;;;;;;4.97;79.28809;930.2965;;;;
2019/11/21 03:34:22;;;;;;;9.4;7.1;;;;;;;4.82;79.27344;930.2443;;;;
2019/11/21 03:36:55;;;;;;;9.6;7.6;;;;;;;4.66;79.77148;930.2908;;;;
2019/11/21 03:39:18;;;;;;;8.4;6.9;;;;;;;4.65;79.88184;930.2684;;;;
2019/11/21 03:42:02;;;;;;;8.4;7.5;;;;;;;4.8;79.75293;930.231;;;;
2019/11/21 03:44:32;;;;;;;8.7;7.3;;;;;;;4.98;78.88477;930.2328;;;;
2019/11/21 03:47:02;;;;;;;9.3;6.8;;;;;;;5.02;78.27148;930.2709;;;;
2019/11/21 03:49:27;;;;;;;7.1;6.3;;;;;;;4.99;78.09766;930.3079;;;;
2019/11/21 03:52:30;;;;;;;8.1;6.7;;;;;;;4.96;78.87109;930.3342;;;;
2019/11/21 03:54:57;;;;;;;8.8;7.2;;;;;;;4.94;79.16992;930.3259;;;;
2019/11/21 04:00:10;;;;;;;8.8;7.6;;;;;;;4.93;79.17969;930.3044;;;;
2019/11/21 04:02:43;;;;;;;11.6;8;;;;;;;4.98;78.73828;930.2564;;;;
2019/11/21 04:05:11;;;;;;;11;8;;;;;;;5.03;78.43262;930.3153;;;;
2019/11/21 04:07:36;;;;;;;10.6;7.9;;;;;;;4.96;78.62305;930.2972;;;;
2019/11/21 04:09:59;;;;;;;9.4;7.4;;;;;;;5.03;78.82715;930.3137;;;;
2019/11/21 04:12:34;;;;;;;9.7;8;;;;;;;5;78.85449;930.3387;;;;
2019/11/21 04:14:58;;;;;;;9.3;8;;;;;;;4.95;79.35352;930.323;;;;
2019/11/21 04:17:22;;;;;;;9.6;8.2;;;;;;;4.82;79.64551;930.4044;;;;
2019/11/21 04:20:04;;;;;;;9.8;8;;;;;;;4.82;79.65723;930.4264;;;;
2019/11/21 04:22:16;;;;;;;9.7;8.2;;;;;;;4.71;80.04004;930.3555;;;;
2019/11/21 04:24:47;;;;;;;12.4;9.2;;;;;;;4.65;79.97266;930.4553;;;;
2019/11/21 04:27:16;;;;;;;10.8;8.5;;;;;;;4.64;79.58887;930.3921;;;;
2019/11/21 04:29:56;;;;;;;10.5;9;;;;;;;4.58;79.56641;930.4498;;;;
2019/11/21 04:32:25;;;;;;;11.1;9.7;;;;;;;4.48;79.62695;930.5109;;;;
2019/11/21 04:34:50;;;;;;;9.7;8.3;;;;;;;4.44;79.84277;930.5046;;;;
2019/11/21 04:37:20;;;;;;;10.4;8.3;;;;;;;4.36;80.27832;930.4783;;;;
2019/11/21 04:39:45;;;;;;;11.2;7.9;;;;;;;4.35;80.20898;930.4655;;;;
2019/11/21 04:42:19;;;;;;;11.6;7.5;;;;;;;4.31;80.37109;930.5435;;;;
2019/11/21 04:44:49;;;;;;;10.6;7.9;;;;;;;4.3;80.05273;930.5314;;;;
2019/11/21 04:47:14;;;;;;;10.9;8.5;;;;;;;4.32;80.13672;930.5297;;;;
2019/11/21 04:49:37;;;;;;;9.2;8.1;;;;;;;4.25;80.47168;930.5817;;;;
2019/11/21 04:52:16;;;;;;;7.9;6.8;;;;;;;4.21;80.55469;930.5258;;;;
2019/11/21 04:54:45;;;;;;;10.8;7.3;;;;;;;4.17;80.00586;930.5287;;;;
2019/11/21 04:57:25;;;;;;;12;7.5;;;;;;;4.19;79.65137;930.533;;;;
2019/11/21 04:59:56;;;;;;;8.6;7.2;;;;;;;4.18;79.68359;930.5186;;;;
2019/11/21 05:02:22;;;;;;;8.7;7.1;;;;;;;4.19;79.24512;930.5297;;;;
2019/11/21 05:04:52;;;;;;;11.1;9.3;;;;;;;4.17;79.5;930.4726;;;;
2019/11/21 05:07:19;;;;;;;10.3;8.6;;;;;;;3.94;79.99609;930.514;;;;
2019/11/21 05:09:47;;;;;;;11.2;8.8;;;;;;;3.88;80.22168;930.5308;;;;
2019/11/21 05:12:23;;;;;;;9.7;8;;;;;;;3.82;80.85059;930.5815;;;;
2019/11/21 05:14:55;;;;;;;11.7;8.9;;;;;;;3.68;80.95996;930.5719;;;;
2019/11/21 05:17:26;;;;;;;13.9;10.2;;;;;;;3.62;81.10449;930.5287;;;;
2019/11/21 05:19:53;;;;;;;11.2;9.3;;;;;;;3.58;81.1875;930.6205;;;;
2019/11/21 05:22:27;;;;;;;12.1;9;;;;;;;3.52;81.23242;930.6026;;;;
2019/11/21 05:24:59;;;;;;;15.6;9.4;;;;;;;3.45;81.28711;930.5836;;;;
2019/11/21 05:27:24;;;;;;;13.4;10;;;;;;;3.43;81.30469;930.5958;;;;
2019/11/21 05:30:02;;;;;;;13.1;8.8;;;;;;;3.41;82.24414;930.5064;;;;
2019/11/21 05:32:32;;;;;;;13.5;8.9;;;;;;;3.28;82.90332;930.639;;;;
2019/11/21 05:35:02;;;;;;;9.9;8.2;;;;;;;3.31;82.99023;930.5558;;;;
2019/11/21 05:37:23;;;;;;;8.6;7.7;;;;;;;3.24;83.06641;930.5902;;;;
2019/11/21 05:39:54;;;;;;;8.4;7.3;;;;;;;3.18;83.21094;930.5642;;;;
2019/11/21 05:42:29;;;;;;;9.5;7.4;;;;;;;3.15;83.48438;930.5751;;;;
2019/11/21 05:44:55;;;;;;;8.6;7.3;;;;;;;3.15;83.49609;930.6381;;;;
2019/11/21 05:47:25;;;;;;;7.9;6.8;;;;;;;3.06;83.95996;930.551;;;;
2019/11/21 05:49:49;;;;;;;9.1;6.6;;;;;;;2.99;84.37402;930.5984;;;;
2019/11/21 05:52:30;;;;;;;9;6.5;;;;;;;2.86;85.19043;930.5906;;;;
2019/11/21 05:54:44;;;;;;;7.9;6.3;;;;;;;2.85;85.38867;930.5619;;;;
2019/11/21 05:57:08;;;;;;;6.5;5.8;;;;;;;2.91;85.27734;930.5657;;;;
2019/11/21 05:59:42;;;;;;;6.9;6.2;;;;;;;2.89;85.41992;930.5394;;;;
2019/11/21 06:02:20;;;;;;;8.3;6.3;;;;;;;2.85;85.73633;930.5288;;;;
2019/11/21 06:04:49;;;;;;;9.2;6.5;;;;;;;3.01;85.33008;930.4608;;;;
2019/11/21 06:07:24;;;;;;;9.2;6.7;;;;;;;3.15;84.89844;930.4925;;;;
2019/11/21 06:09:53;;;;;;;8;6.3;;;;;;;3.19;84.78613;930.4495;;;;
2019/11/21 06:12:28;;;;;;;7.5;6.4;;;;;;;3.28;84.42969;930.5195;;;;
2019/11/21 06:14:57;;;;;;;7.7;6.9;;;;;;;3.35;84.26465;930.4528;;;;
2019/11/21 06:17:37;;;;;;;10.3;7.6;;;;;;;3.38;83.97754;930.4501;;;;
2019/11/21 06:20:06;;;;;;;11.5;8;;;;;;;3.4;84.23047;930.4012;;;;
2019/11/21 06:22:31;;;;;;;7.5;6.7;;;;;;;3.46;83.92676;930.4501;;;;
2019/11/21 06:24:57;;;;;;;9.3;6.9;;;;;;;3.49;83.63086;930.4641;;;;
2019/11/21 06:27:21;;;;;;;8.8;6.9;;;;;;;3.56;83.84668;930.4217;;;;
2019/11/21 06:29:56;;;;;;;8.2;7.3;;;;;;;3.67;83.51953;930.4897;;;;
2019/11/21 06:32:24;;;;;;;8.4;6.2;;;;;;;3.69;82.63574;930.4871;;;;
2019/11/21 06:35:00;;;;;;;8.3;6.7;;;;;;;3.67;83.2168;930.4441;;;;
2019/11/21 06:37:34;;;;;;;7.9;5.7;;;;;;;3.61;82.93457;930.4207;;;;
2019/11/21 06:40:07;;;;;;;7.6;6;;;;;;;3.64;82.87207;930.4836;;;;
2019/11/21 06:42:42;;;;;;;8.5;6.1;;;;;;;3.68;83.27441;930.4846;;;;
2019/11/21 06:45:22;;;;;;;8.7;6.1;;;;;;;3.76;82.85156;930.3728;;;;
2019/11/21 06:48:30;;;;;;;8.4;6.2;;;;;;;3.84;82.47266;930.3544;;;;
2019/11/21 06:50:47;;;;;;;9.6;6.2;;;;;;;3.93;81.90527;930.4878;;;;
2019/11/21 06:53:19;;;;;;;11.5;8.4;;;;;;;3.99;81.7041;930.5977;;;;
2019/11/21 06:55:47;;;;;;;15.8;11.3;;;;;;;4.07;81.54883;930.6005;;;;
2019/11/21 06:58:18;;;;;;;19.8;12.7;;;;;;;4.1;81.21875;930.6153;;;;
2019/11/21 07:00:42;;;;;;;20.7;15.3;;;;;;;4.12;81.07617;930.6198;;;;
2019/11/21 07:03:09;;;;;;;30.2;21.7;;;;;;;4.18;80.88574;930.6902;;;;
2019/11/21 07:05:36;;;;;;;11.2;8.6;;;;;;;4.21;80.88086;930.7433;;;;
2019/11/21 07:08:08;;;;;;;16;8.8;;;;;;;4.22;81.24121;930.7654;;;;
2019/11/21 07:10:32;;;;;;;10.9;6.7;;;;;;;4.28;81.15332;930.7455;;;;
2019/11/21 07:13:14;;;;;;;10.1;7;;;;;;;4.36;80.94434;930.7203;;;;
2019/11/21 07:15:38;;;;;;;8;6.6;;;;;;;4.44;80.8916;930.7302;;;;
2019/11/21 07:18:22;;;;;;;11;6.7;;;;;;;4.48;80.33398;930.7087;;;;
2019/11/21 07:20:51;;;;;;;11.4;7.2;;;;;;;4.56;79.83105;930.7481;;;;
2019/11/21 07:23:19;;;;;;;9.1;7.6;;;;;;;4.61;80.22461;930.7755;;;;
2019/11/21 07:25:53;;;;;;;8.8;7.6;;;;;;;4.73;79.68359;930.7589;;;;
2019/11/21 07:28:28;;;;;;;9.4;7.5;;;;;;;4.78;79.35547;930.826;;;;
2019/11/21 07:31:09;;;;;;;8.9;6.9;;;;;;;4.85;79.45898;930.8323;;;;
2019/11/21 07:33:35;;;;;;;11.3;7.5;;;;;;;4.92;79.41602;930.8069;;;;
2019/11/21 07:36:10;;;;;;;10;7;;;;;;;5.06;78.22266;930.7725;;;;
2019/11/21 07:38:34;;;;;;;8.5;7.3;;;;;;;5.05;78.61719;930.8166;;;;
2019/11/21 07:41:07;;;;;;;13.4;8.6;;;;;;;5.17;78.51465;930.8691;;;;
2019/11/21 07:43:33;;;;;;;29;19.1;;;;;;;5.28;77.86914;930.9005;;;;
2019/11/21 07:46:02;;;;;;;19.9;14.4;;;;;;;5.28;78.18652;930.8974;;;;
2019/11/21 07:48:31;;;;;;;10.8;8.3;;;;;;;5.52;77.64063;930.8605;;;;
2019/11/21 07:51:00;;;;;;;10.6;8;;;;;;;5.69;77.3125;930.8217;;;;
2019/11/21 07:53:43;;;;;;;9.3;6.7;;;;;;;5.82;76.05859;930.8145;;;;
2019/11/21 07:56:07;;;;;;;8.5;7.2;;;;;;;5.76;75.72168;930.8828;;;;
2019/11/21 07:58:34;;;;;;;10;7.2;;;;;;;5.91;75.67773;930.8019;;;;
2019/11/21 08:01:04;;;;;;;10.9;6.6;;;;;;;6.1;75.3291;930.7645;;;;
2019/11/21 08:03:32;;;;;;;6.4;5.4;;;;;;;6.66;73.2666;930.8137;;;;
2019/11/21 08:05:55;;;;;;;8;5.4;;;;;;;7.54;69.93652;930.8103;;;;
2019/11/21 08:08:27;;;;;;;7.6;5.4;;;;;;;8.34;66.79492;930.7856;;;;
2019/11/21 08:10:50;;;;;;;7.4;4.8;;;;;;;8.7;65.16797;930.7419;;;;
2019/11/21 08:13:16;;;;;;;5.1;4.6;;;;;;;9.44;63.27539;930.7642;;;;
2019/11/21 08:15:44;;;;;;;4.9;4.2;;;;;;;10.87;58.27441;930.611;;;;
2019/11/21 08:18:09;;;;;;;7.1;4.5;;;;;;;12.17;54.54102;930.6658;;;;
2019/11/21 08:20:37;;;;;;;8.3;4.3;;;;;;;14.11;49.07617;930.6049;;;;
2019/11/21 08:23:07;;;;;;;9.2;4.9;;;;;;;14.18;47.1709;930.5494;;;;
2019/11/21 08:25:35;;;;;;;8.3;5.1;;;;;;;14.18;46.74609;930.5276;;;;
2019/11/21 08:28:08;;;;;;;8.1;5.6;;;;;;;13.27;48.72852;930.4892;;;;
2019/11/21 08:30:43;;;;;;;15.6;6.4;;;;;;;13.31;48.8125;930.491;;;;
2019/11/21 08:33:08;;;;;;;9.5;5.4;;;;;;;11.24;53.73926;930.4718;;;;
2019/11/21 08:35:37;;;;;;;7.1;5;;;;;;;10.13;57.52539;930.4652;;;;
2019/11/21 08:38:03;;;;;;;7.1;5.6;;;;;;;10.01;59.12988;930.4758;;;;
2019/11/21 08:40:42;;;;;;;12.8;6.1;;;;;;;9.39;60.09082;930.442;;;;
2019/11/21 08:43:22;;;;;;;7.9;5.1;;;;;;;8.55;63.53125;930.4562;;;;
2019/11/21 08:45:49;;;;;;;8.7;5;;;;;;;7.95;65.59961;930.3773;;;;
2019/11/21 08:48:14;;;;;;;7.7;4.5;;;;;;;7.88;66.9043;930.3943;;;;
2019/11/21 08:50:51;;;;;;;9.6;4.5;;;;;;;8.04;67.31543;930.3488;;;;
2019/11/21 08:54:00;;;;;;;8.5;5.1;;;;;;;8.1;66.33789;930.2739;;;;
2019/11/21 08:55:53;;;;;;;11.1;5.2;;;;;;;8.07;66.77539;930.3063;;;;
2019/11/21 08:58:17;;;;;;;8.5;6;;;;;;;7.18;69.48145;930.265;;;;
2019/11/21 09:00:44;;;;;;;8.4;6.2;;;;;;;7.21;70.2793;930.26;;;;
2019/11/21 09:03:31;;;;;;;8;5.9;;;;;;;7.44;70.58887;930.2297;;;;
2019/11/21 09:05:57;;;;;;;13.4;6.5;;;;;;;7.48;70.09473;930.1983;;;;
2019/11/21 09:08:26;;;;;;;11.1;5.8;;;;;;;7.21;71.41211;930.2093;;;;
2019/11/21 09:10:55;;;;;;;13.8;6.5;;;;;;;6.99;71.47754;930.1925;;;;
2019/11/21 09:13:23;;;;;;;12.7;7;;;;;;;7.06;72.08887;930.2449;;;;
2019/11/21 09:15:53;;;;;;;13.7;6.7;;;;;;;6.67;72.9043;930.1825;;;;
2019/11/21 09:18:24;;;;;;;10.3;7.2;;;;;;;6.42;74.12012;930.1819;;;;
2019/11/21 09:20:51;;;;;;;8.4;6.6;;;;;;;6.19;75.0625;930.1707;;;;
2019/11/21 09:23:14;;;;;;;11.8;6.5;;;;;;;6.34;74.93066;930.1972;;;;
2019/11/21 09:25:41;;;;;;;9.3;6.2;;;;;;;6.2;75.32422;930.1501;;;;
2019/11/21 09:28:09;;;;;;;8.5;5.4;;;;;;;6.45;74.75781;930.1475;;;;
2019/11/21 09:30:37;;;;;;;8.8;4.6;;;;;;;6.32;74.8584;930.1029;;;;
2019/11/21 09:33:12;;;;;;;11.1;5.9;;;;;;;6.68;73.84766;930.0586;;;;
2019/11/21 09:35:51;;;;;;;8.2;5.1;;;;;;;7.01;73.67871;930.0481;;;;
2019/11/21 09:38:03;;;;;;;9.3;4.9;;;;;;;7.2;71.81836;929.9959;;;;
2019/11/21 09:40:34;;;;;;;9.8;5.7;;;;;;;7.58;71.71191;929.8711;;;;
2019/11/21 09:43:07;;;;;;;12.6;4.9;;;;;;;7.79;69.48828;929.9291;;;;
2019/11/21 09:45:36;;;;;;;12.5;3.7;;;;;;;7.43;69.99707;929.9263;;;;
2019/11/21 09:48:00;;;;;;;11.7;4.3;;;;;;;7.29;70.94922;929.8624;;;;
2019/11/21 09:50:34;;;;;;;5.8;3.4;;;;;;;7.59;70.40918;929.8759;;;;
2019/11/21 09:53:04;;;;;;;6.3;3.1;;;;;;;7.58;69.72754;929.8109;;;;
2019/11/21 09:55:39;;;;;;;9.6;3.3;;;;;;;7.8;68.37793;929.7603;;;;
2019/11/21 09:58:09;;;;;;;10.5;2.7;;;;;;;7.64;68.89648;929.6872;;;;
2019/11/21 10:00:32;;;;;;;3.2;2.2;;;;;;;7.63;69.07715;929.673;;;;
2019/11/21 10:02:57;;;;;;;5.9;2.8;;;;;;;7.64;68.7168;929.7062;;;;
2019/11/21 10:05:25;;;;;;;9.1;4.6;;;;;;;7.47;68.62109;929.6534;;;;
2019/11/21 10:07:52;;;;;;;4.7;2.6;;;;;;;7.59;69.10449;929.6248;;;;
2019/11/21 10:10:18;;;;;;;7.7;2.7;;;;;;;7.93;68.75195;929.606;;;;
2019/11/21 10:13:06;;;;;;;4.6;2.5;;;;;;;8.26;67.15625;929.5754;;;;
2019/11/21 10:15:37;;;;;;;8.3;2.8;;;;;;;8.19;67.3623;929.5361;;;;
2019/11/21 10:17:50;;;;;;;6.1;3;;;;;;;8.14;67.53613;929.5066;;;;
2019/11/21 10:20:20;;;;;;;6.8;4.3;;;;;;;8.26;67.39648;929.4883;;;;
2019/11/21 10:22:45;;;;;;;8;3.2;;;;;;;8.18;67.48633;929.4536;;;;
2019/11/21 10:25:16;;;;;;;8;3;;;;;;;8.32;67.79102;929.4417;;;;
2019/11/21 10:27:45;;;;;;;7;3.5;;;;;;;8.57;66.95605;929.3883;;;;
2019/11/21 10:30:13;;;;;;;7.9;4.2;;;;;;;8.68;65.71094;929.4047;;;;
2019/11/21 10:32:33;;;;;;;8;5.2;;;;;;;8.88;65.67285;929.3236;;;;
2019/11/21 10:35:00;;;;;;;5.5;3.2;;;;;;;9.3;64.32422;929.2488;;;;
2019/11/21 10:37:33;;;;;;;5.4;3;;;;;;;9.57;63.93359;929.2949;;;;
2019/11/21 10:40:04;;;;;;;4.5;2.9;;;;;;;9.93;62.9707;929.2986;;;;
2019/11/21 10:42:33;;;;;;;3.8;2.6;;;;;;;10.17;62.27637;929.2568;;;;
2019/11/21 10:44:57;;;;;;;5.2;2.7;;;;;;;10.24;61.7832;929.2222;;;;
2019/11/21 10:47:25;;;;;;;6.5;2.7;;;;;;;10.57;60.50684;929.2511;;;;
2019/11/21 10:49:56;;;;;;;3.8;2.5;;;;;;;10.9;59.74219;929.1429;;;;
2019/11/21 10:52:19;;;;;;;3.8;2.5;;;;;;;11.05;58.99707;929.1573;;;;
2019/11/21 10:54:49;;;;;;;4.2;2.3;;;;;;;11.22;58.17285;929.0608;;;;
2019/11/21 10:57:17;;;;;;;2.4;1.9;;;;;;;11.31;57.71484;929.0146;;;;
2019/11/21 10:59:45;;;;;;;3;2;;;;;;;11.41;57.03125;928.998;;;;
2019/11/21 11:02:18;;;;;;;3.4;1.6;;;;;;;11.5;56.4375;929.0298;;;;
2019/11/21 11:04:44;;;;;;;4.7;1.9;;;;;;;11.73;56.92578;929.0048;;;;
2019/11/21 11:07:14;;;;;;;3.5;1.8;;;;;;;11.8;56.50977;928.9726;;;;
2019/11/21 11:09:44;;;;;;;7.5;3.1;;;;;;;11.8;58.0332;928.9383;;;;
2019/11/21 11:12:19;;;;;;;7.3;3.4;;;;;;;11.71;58.77637;928.8998;;;;
2019/11/21 11:14:46;;;;;;;5.3;3.2;;;;;;;11.69;59.46289;928.8833;;;;
2019/11/21 11:17:14;;;;;;;5.5;3.3;;;;;;;11.8;58.91504;928.837;;;;
2019/11/21 11:19:47;;;;;;;9.1;3.6;;;;;;;11.87;59.11914;928.9067;;;;
2019/11/21 11:22:28;;;;;;;6.6;3.5;;;;;;;11.94;58.69434;928.8741;;;;
2019/11/21 11:25:23;;;;;;;7.3;3.5;;;;;;;11.9;59.66309;928.8481;;;;
2019/11/21 11:28:26;;;;;;;7.3;3.8;;;;;;;11.61;60.14844;928.8234;;;;
2019/11/21 11:30:54;;;;;;;10.3;3.6;;;;;;;11.43;62.27441;928.7587;;;;
2019/11/21 11:33:15;;;;;;;8.9;4.1;;;;;;;11.79;60.81348;928.7693;;;;
2019/11/21 11:35:40;;;;;;;5.8;3.8;;;;;;;12.02;58.1543;928.7665;;;;
2019/11/21 11:38:19;;;;;;;8.4;3.9;;;;;;;12.73;56.4248;928.6967;;;;
2019/11/21 11:40:52;;;;;;;7.1;4.1;;;;;;;13.63;53.79395;928.668;;;;
2019/11/21 11:43:29;;;;;;;9.2;4.4;;;;;;;14.61;50.66504;928.7246;;;;
2019/11/21 11:46:07;;;;;;;9.7;4.3;;;;;;;15.82;48.16992;928.6711;;;;
2019/11/21 11:51:25;;;;;;;7.4;4;;;;;;;18.87;39.46289;928.5948;;;;
2019/11/21 11:53:50;;;;;;;4.4;2.9;;;;;;;19.69;38.03223;928.5726;;;;
2019/11/21 11:56:21;;;;;;;7.2;3.7;;;;;;;18.29;40.42188;928.5569;;;;
2019/11/21 11:58:44;;;;;;;5.5;3.7;;;;;;;17.25;42.73828;928.5269;;;;
2019/11/21 12:01:30;;;;;;;5.9;4.2;;;;;;;17.19;42.90625;928.5516;;;;
2019/11/21 12:04:22;;;;;;;5.6;4;;;;;;;17.59;42.35352;928.537;;;;
2019/11/21 12:06:55;;;;;;;7;4.5;;;;;;;17.85;42.2627;928.5098;;;;
2019/11/21 12:09:16;;;;;;;5.9;4.4;;;;;;;18.71;40.35547;928.5465;;;;
2019/11/21 12:11:41;;;;;;;7.1;4.8;;;;;;;20;37.17188;928.5157;;;;
2019/11/21 12:14:55;;;;;;;6.5;4.6;;;;;;;21.16;35.12891;928.4431;;;;
2019/11/21 12:17:35;;;;;;;6.4;5.4;;;;;;;21.38;34.50391;928.421;;;;
2019/11/21 12:20:01;;;;;;;6.7;4.8;;;;;;;20.81;34.7627;928.3691;;;;
2019/11/21 12:22:40;;;;;;;6.5;5.2;;;;;;;20.09;36.98145;928.4165;;;;
2019/11/21 12:25:04;;;;;;;8;5.5;;;;;;;19.83;38.44141;928.3362;;;;
2019/11/21 12:27:37;;;;;;;8;5.5;;;;;;;18.7;40.00684;928.3524;;;;
2019/11/21 12:30:11;;;;;;;8.4;5.9;;;;;;;18.21;41.3916;928.2935;;;;
2019/11/21 12:32:42;;;;;;;7.4;5.5;;;;;;;18.53;40.72363;928.3203;;;;
2019/11/21 12:35:12;;;;;;;7.5;5.5;;;;;;;19.15;40.02441;928.2161;;;;
2019/11/21 12:37:41;;;;;;;9.3;6.2;;;;;;;19.53;38.86914;928.1983;;;;
2019/11/21 12:45:07;;;;;;;7;5.9;;;;;;;18.97;39.99609;928.1898;;;;
2019/11/21 12:47:31;;;;;;;7.5;6.3;;;;;;;18.69;40.58789;928.11;;;;
2019/11/21 12:50:00;;;;;;;8.2;6.2;;;;;;;19.79;37.93555;928.1269;;;;
2019/11/21 12:52:29;;;;;;;8;6.5;;;;;;;20.36;36.73633;928.0971;;;;
2019/11/21 12:54:56;;;;;;;8.1;6.4;;;;;;;19.35;38.64355;928.0728;;;;
2019/11/21 12:57:23;;;;;;;8.1;6.3;;;;;;;19.04;39.59473;928.1272;;;;
2019/11/21 12:59:47;;;;;;;7.8;6.5;;;;;;;19.14;39.47559;928.0441;;;;
2019/11/21 13:02:15;;;;;;;9.3;6.4;;;;;;;19.03;39;928.0692;;;;
2019/11/21 13:04:38;;;;;;;8.9;6.5;;;;;;;18.87;39.41602;928.073;;;;
2019/11/21 13:07:08;;;;;;;9.5;6.7;;;;;;;17.32;43.46484;928.1124;;;;
2019/11/21 13:09:34;;;;;;;9.5;7;;;;;;;16.3;46.45215;928.1269;;;;
2019/11/21 13:12:00;;;;;;;10.2;7.2;;;;;;;16.26;46.42578;928.2067;;;;
2019/11/21 13:14:28;;;;;;;8.4;6.6;;;;;;;16.32;45.60938;928.1584;;;;
2019/11/21 13:16:55;;;;;;;9;7.3;;;;;;;15.37;48.35156;928.1958;;;;
2019/11/21 13:19:36;;;;;;;11.7;7.4;;;;;;;16.05;47.45605;928.2251;;;;
2019/11/21 13:21:55;;;;;;;10.2;7.8;;;;;;;16.2;46.7998;928.1183;;;;
2019/11/21 13:24:19;;;;;;;11.6;8.8;;;;;;;17.24;44.12891;928.1415;;;;
2019/11/21 13:26:47;;;;;;;11.2;9;;;;;;;17.47;43.22363;928.082;;;;
2019/11/21 13:29:15;;;;;;;12.1;9.2;;;;;;;17.32;43.7998;928.1802;;;;
2019/11/21 13:31:46;;;;;;;13.7;9.6;;;;;;;16.8;44.53613;928.2148;;;;
2019/11/21 13:34:25;;;;;;;15.6;9.8;;;;;;;15.99;46.60449;928.2338;;;;
2019/11/21 13:36:57;;;;;;;12.7;9.9;;;;;;;15.14;48.96191;928.1131;;;;
2019/11/21 13:39:21;;;;;;;15.3;10.1;;;;;;;14.87;49.86328;928.137;;;;
2019/11/21 13:41:53;;;;;;;13.7;10.1;;;;;;;15.47;48.23535;928.2441;;;;
2019/11/21 13:44:24;;;;;;;12.1;9.7;;;;;;;15.25;48.58008;928.2816;;;;
2019/11/21 13:46:45;;;;;;;14.3;10.3;;;;;;;16.23;46.45703;928.2695;;;;
2019/11/21 13:49:12;;;;;;;15.4;9.9;;;;;;;17.29;43.68164;928.2559;;;;
2019/11/21 13:51:44;;;;;;;13;9.9;;;;;;;17.43;43.21973;928.3032;;;;
2019/11/21 13:54:17;;;;;;;15.5;9.9;;;;;;;18.14;41.83691;928.3106;;;;
2019/11/21 13:59:14;;;;;;;12;9.9;;;;;;;18.54;40.82813;928.2347;;;;
2019/11/21 14:01:47;;;;;;;13.8;9.8;;;;;;;17.72;41.97168;928.2899;;;;
2019/11/21 14:04:18;;;;;;;15.1;10.4;;;;;;;17.85;41.82227;928.3315;;;;
2019/11/21 14:06:52;;;;;;;12.5;9.9;;;;;;;18.51;40.63965;928.2542;;;;
2019/11/21 14:09:16;;;;;;;12.6;9.6;;;;;;;18.22;40.5791;928.3289;;;;
2019/11/21 14:11:42;;;;;;;14;10.1;;;;;;;17.54;42.53516;928.397;;;;
2019/11/21 14:14:16;;;;;;;15.5;10.5;;;;;;;17.41;42.71875;928.3994;;;;
2019/11/21 14:16:42;;;;;;;15.2;10.8;;;;;;;17.23;43.31641;928.36;;;;
2019/11/21 14:19:10;;;;;;;12.6;10.4;;;;;;;17.17;42.9043;928.4606;;;;
2019/11/21 14:21:39;;;;;;;15.7;10.1;;;;;;;17.11;43.44336;928.5527;;;;
2019/11/21 14:24:02;;;;;;;17.1;10.9;;;;;;;16.41;44.90234;928.4852;;;;
2019/11/21 14:26:33;;;;;;;15.3;10.5;;;;;;;16.9;43.89746;928.55;;;;
2019/11/21 14:29:03;;;;;;;15.2;10.6;;;;;;;16.65;44.01172;928.5785;;;;
2019/11/21 14:31:37;;;;;;;15.1;11.2;;;;;;;16.39;44.77246;928.6473;;;;
2019/11/21 14:34:11;;;;;;;16;11.5;;;;;;;15.15;47.63477;928.5875;;;;
2019/11/21 14:36:46;;;;;;;17.2;12.3;;;;;;;13.67;51.59082;928.644;;;;
2019/11/21 14:39:20;;;;;;;19.7;12.9;;;;;;;12.31;55.87793;928.7234;;;;
2019/11/21 14:41:48;;;;;;;18.5;13.5;;;;;;;11.33;59.33203;928.7609;;;;
2019/11/21 14:44:15;;;;;;;18.8;13.9;;;;;;;10.51;62.36035;928.7826;;;;
2019/11/21 14:47:07;;;;;;;21;14.8;;;;;;;9.87;64.76465;928.8663;;;;
2019/11/21 14:49:23;;;;;;;21.7;14.6;;;;;;;9.68;65.88574;928.9628;;;;
2019/11/21 14:52:14;;;;;;;26;15.5;;;;;;;9.55;66.42285;928.9254;;;;
2019/11/21 14:54:25;;;;;;;21.5;15.2;;;;;;;9.32;67.20801;928.9819;;;;
2019/11/21 14:56:55;;;;;;;23.5;15.8;;;;;;;9.15;67.94531;929.027;;;;
2019/11/21 14:59:22;;;;;;;22.6;15;;;;;;;8.99;68.68164;929.0815;;;;
2019/11/21 15:01:51;;;;;;;24;16.8;;;;;;;8.73;69.64063;929.0167;;;;
2019/11/21 15:04:13;;;;;;;23.3;16.6;;;;;;;8.61;70.19141;929.0903;;;;